sensor_id;sensor_type;location;lat;lon;timestamp;P1;durP1;ratioP1;P2;durP2;ratioP2
16906;SDS011;8570;52.380;4.654;2024-02-26T00:02:35;10.43;;;8.77;;
16906;SDS011;8570;52.380;4.654;2024-02-26T00:07:39;10.87;;;8.50;;
16906;SDS011;8570;52.380;4.654;2024-02-26T00:12:41;10.83;;;9.37;;
16906;SDS011;8570;52.380;4.654;2024-02-26T00:17:43;11.23;;;8.90;;
16906;SDS011;8570;52.380;4.654;2024-02-26T00:22:46;10.73;;;8.03;;
16906;SDS011;8570;52.380;4.654;2024-02-26T00:27:48;11.40;;;8.13;;
16906;SDS011;8570;52.380;4.654;2024-02-26T00:32:50;9.53;;;7.40;;
16906;SDS011;8570;52.380;4.654;2024-02-26T00:37:53;8.17;;;6.50;;
16906;SDS011;8570;52.380;4.654;2024-02-26T00:42:55;10.73;;;6.40;;
16906;SDS011;8570;52.380;4.654;2024-02-26T00:47:56;8.93;;;6.57;;
16906;SDS011;8570;52.380;4.654;2024-02-26T00:53:00;11.27;;;6.10;;
16906;SDS011;8570;52.380;4.654;2024-02-26T00:58:02;11.27;;;6.10;;
16906;SDS011;8570;52.380;4.654;2024-02-26T01:03:04;9.23;;;6.27;;
16906;SDS011;8570;52.380;4.654;2024-02-26T01:08:08;10.03;;;6.77;;
16906;SDS011;8570;52.380;4.654;2024-02-26T01:13:09;8.93;;;6.73;;
16906;SDS011;8570;52.380;4.654;2024-02-26T01:18:11;9.40;;;6.70;;
16906;SDS011;8570;52.380;4.654;2024-02-26T01:23:14;7.43;;;5.70;;
16906;SDS011;8570;52.380;4.654;2024-02-26T01:28:16;8.20;;;5.87;;
16906;SDS011;8570;52.380;4.654;2024-02-26T01:33:18;8.30;;;6.57;;
16906;SDS011;8570;52.380;4.654;2024-02-26T01:38:21;12.67;;;6.67;;
16906;SDS011;8570;52.380;4.654;2024-02-26T01:43:23;7.20;;;6.30;;
16906;SDS011;8570;52.380;4.654;2024-02-26T01:48:25;9.00;;;7.60;;
16906;SDS011;8570;52.380;4.654;2024-02-26T01:53:28;8.23;;;7.23;;
16906;SDS011;8570;52.380;4.654;2024-02-26T01:58:31;11.30;;;7.77;;
16906;SDS011;8570;52.380;4.654;2024-02-26T02:03:33;12.03;;;8.30;;
16906;SDS011;8570;52.380;4.654;2024-02-26T02:08:36;12.10;;;9.10;;
16906;SDS011;8570;52.380;4.654;2024-02-26T02:13:40;12.77;;;9.70;;
16906;SDS011;8570;52.380;4.654;2024-02-26T02:18:42;12.63;;;10.13;;
16906;SDS011;8570;52.380;4.654;2024-02-26T02:23:45;13.97;;;9.90;;
16906;SDS011;8570;52.380;4.654;2024-02-26T02:28:49;12.40;;;10.10;;
16906;SDS011;8570;52.380;4.654;2024-02-26T02:33:50;16.70;;;10.63;;
16906;SDS011;8570;52.380;4.654;2024-02-26T02:38:54;14.17;;;10.30;;
16906;SDS011;8570;52.380;4.654;2024-02-26T02:43:56;12.47;;;10.53;;
16906;SDS011;8570;52.380;4.654;2024-02-26T02:48:57;16.37;;;11.37;;
16906;SDS011;8570;52.380;4.654;2024-02-26T02:54:01;15.50;;;11.07;;
16906;SDS011;8570;52.380;4.654;2024-02-26T02:59:03;14.03;;;10.93;;
16906;SDS011;8570;52.380;4.654;2024-02-26T03:04:05;16.80;;;10.90;;
16906;SDS011;8570;52.380;4.654;2024-02-26T03:09:08;16.07;;;11.47;;
16906;SDS011;8570;52.380;4.654;2024-02-26T03:14:10;15.77;;;11.77;;
16906;SDS011;8570;52.380;4.654;2024-02-26T03:19:13;14.63;;;11.50;;
16906;SDS011;8570;52.380;4.654;2024-02-26T03:24:17;15.93;;;11.67;;
16906;SDS011;8570;52.380;4.654;2024-02-26T03:29:19;17.30;;;10.83;;
16906;SDS011;8570;52.380;4.654;2024-02-26T03:34:21;16.13;;;11.63;;
16906;SDS011;8570;52.380;4.654;2024-02-26T03:39:24;16.17;;;11.97;;
16906;SDS011;8570;52.380;4.654;2024-02-26T03:44:26;14.50;;;11.57;;
16906;SDS011;8570;52.380;4.654;2024-02-26T03:49:27;17.33;;;12.17;;
16906;SDS011;8570;52.380;4.654;2024-02-26T03:54:31;15.97;;;12.13;;
16906;SDS011;8570;52.380;4.654;2024-02-26T03:59:33;16.50;;;12.60;;
16906;SDS011;8570;52.380;4.654;2024-02-26T04:04:34;16.50;;;12.50;;
16906;SDS011;8570;52.380;4.654;2024-02-26T04:09:38;18.27;;;12.63;;
16906;SDS011;8570;52.380;4.654;2024-02-26T04:14:39;18.67;;;13.63;;
16906;SDS011;8570;52.380;4.654;2024-02-26T04:19:41;19.63;;;14.67;;
16906;SDS011;8570;52.380;4.654;2024-02-26T04:24:44;19.23;;;14.50;;
16906;SDS011;8570;52.380;4.654;2024-02-26T04:29:46;23.37;;;16.10;;
16906;SDS011;8570;52.380;4.654;2024-02-26T04:34:48;20.63;;;15.37;;
16906;SDS011;8570;52.380;4.654;2024-02-26T04:39:51;25.20;;;16.73;;
16906;SDS011;8570;52.380;4.654;2024-02-26T04:44:54;22.93;;;16.43;;
16906;SDS011;8570;52.380;4.654;2024-02-26T04:49:56;23.97;;;16.23;;
16906;SDS011;8570;52.380;4.654;2024-02-26T04:54:59;26.13;;;17.10;;
16906;SDS011;8570;52.380;4.654;2024-02-26T05:00:01;22.33;;;16.83;;
16906;SDS011;8570;52.380;4.654;2024-02-26T05:05:05;25.57;;;18.00;;
16906;SDS011;8570;52.380;4.654;2024-02-26T05:10:10;26.80;;;17.90;;
16906;SDS011;8570;52.380;4.654;2024-02-26T05:15:12;26.03;;;17.30;;
16906;SDS011;8570;52.380;4.654;2024-02-26T05:20:18;25.30;;;18.10;;
16906;SDS011;8570;52.380;4.654;2024-02-26T05:25:21;24.43;;;18.00;;
16906;SDS011;8570;52.380;4.654;2024-02-26T05:30:24;22.57;;;16.77;;
16906;SDS011;8570;52.380;4.654;2024-02-26T05:35:27;20.63;;;16.17;;
16906;SDS011;8570;52.380;4.654;2024-02-26T05:40:30;22.50;;;15.47;;
16906;SDS011;8570;52.380;4.654;2024-02-26T05:45:32;21.63;;;14.77;;
16906;SDS011;8570;52.380;4.654;2024-02-26T05:50:34;17.60;;;14.07;;
16906;SDS011;8570;52.380;4.654;2024-02-26T05:55:37;15.90;;;12.43;;
16906;SDS011;8570;52.380;4.654;2024-02-26T06:00:39;18.57;;;12.80;;
16906;SDS011;8570;52.380;4.654;2024-02-26T06:05:41;16.23;;;12.07;;
16906;SDS011;8570;52.380;4.654;2024-02-26T06:10:45;19.17;;;13.37;;
16906;SDS011;8570;52.380;4.654;2024-02-26T06:15:47;18.67;;;11.67;;
16906;SDS011;8570;52.380;4.654;2024-02-26T06:20:49;17.07;;;12.17;;
16906;SDS011;8570;52.380;4.654;2024-02-26T06:25:52;14.03;;;11.07;;
16906;SDS011;8570;52.380;4.654;2024-02-26T06:30:54;13.60;;;10.60;;
16906;SDS011;8570;52.380;4.654;2024-02-26T06:35:55;11.57;;;9.23;;
16906;SDS011;8570;52.380;4.654;2024-02-26T06:40:59;14.10;;;9.93;;
16906;SDS011;8570;52.380;4.654;2024-02-26T06:46:03;12.20;;;8.73;;
16906;SDS011;8570;52.380;4.654;2024-02-26T06:51:06;12.37;;;8.27;;
16906;SDS011;8570;52.380;4.654;2024-02-26T06:56:09;10.60;;;7.40;;
16906;SDS011;8570;52.380;4.654;2024-02-26T07:01:11;12.57;;;6.90;;
16906;SDS011;8570;52.380;4.654;2024-02-26T07:06:13;10.60;;;7.50;;
16906;SDS011;8570;52.380;4.654;2024-02-26T07:11:17;8.57;;;6.47;;
16906;SDS011;8570;52.380;4.654;2024-02-26T07:16:20;10.43;;;6.97;;
16906;SDS011;8570;52.380;4.654;2024-02-26T07:21:21;11.50;;;8.03;;
16906;SDS011;8570;52.380;4.654;2024-02-26T07:26:25;14.57;;;9.07;;
16906;SDS011;8570;52.380;4.654;2024-02-26T07:31:30;9.47;;;6.73;;
16906;SDS011;8570;52.380;4.654;2024-02-26T07:36:32;10.20;;;6.60;;
16906;SDS011;8570;52.380;4.654;2024-02-26T07:41:35;10.20;;;6.67;;
16906;SDS011;8570;52.380;4.654;2024-02-26T07:46:39;9.63;;;7.00;;
16906;SDS011;8570;52.380;4.654;2024-02-26T07:51:41;14.93;;;7.27;;
16906;SDS011;8570;52.380;4.654;2024-02-26T07:56:44;11.97;;;7.87;;
16906;SDS011;8570;52.380;4.654;2024-02-26T08:01:49;6.63;;;5.50;;
16906;SDS011;8570;52.380;4.654;2024-02-26T08:06:51;8.30;;;5.63;;
16906;SDS011;8570;52.380;4.654;2024-02-26T08:11:54;5.17;;;4.67;;
16906;SDS011;8570;52.380;4.654;2024-02-26T08:16:56;7.67;;;5.87;;
16906;SDS011;8570;52.380;4.654;2024-02-26T08:21:58;9.63;;;5.60;;
16906;SDS011;8570;52.380;4.654;2024-02-26T08:27:02;7.90;;;5.73;;
16906;SDS011;8570;52.380;4.654;2024-02-26T08:32:04;7.17;;;5.23;;
16906;SDS011;8570;52.380;4.654;2024-02-26T08:37:07;7.87;;;5.90;;
16906;SDS011;8570;52.380;4.654;2024-02-26T08:42:10;5.43;;;4.53;;
16906;SDS011;8570;52.380;4.654;2024-02-26T08:47:12;6.77;;;5.20;;
16906;SDS011;8570;52.380;4.654;2024-02-26T08:52:14;8.83;;;5.17;;
16906;SDS011;8570;52.380;4.654;2024-02-26T08:57:17;6.20;;;4.40;;
16906;SDS011;8570;52.380;4.654;2024-02-26T09:02:19;6.20;;;4.47;;
16906;SDS011;8570;52.380;4.654;2024-02-26T09:07:21;7.27;;;4.63;;
16906;SDS011;8570;52.380;4.654;2024-02-26T09:12:24;7.80;;;4.30;;
16906;SDS011;8570;52.380;4.654;2024-02-26T09:17:26;6.93;;;4.83;;
16906;SDS011;8570;52.380;4.654;2024-02-26T09:22:28;6.37;;;3.93;;
16906;SDS011;8570;52.380;4.654;2024-02-26T09:27:31;7.90;;;4.23;;
16906;SDS011;8570;52.380;4.654;2024-02-26T09:32:38;7.40;;;4.40;;
16906;SDS011;8570;52.380;4.654;2024-02-26T09:37:40;6.40;;;5.00;;
16906;SDS011;8570;52.380;4.654;2024-02-26T09:42:45;8.73;;;4.50;;
16906;SDS011;8570;52.380;4.654;2024-02-26T09:47:47;9.97;;;4.23;;
16906;SDS011;8570;52.380;4.654;2024-02-26T09:52:50;7.07;;;4.30;;
16906;SDS011;8570;52.380;4.654;2024-02-26T09:57:54;4.53;;;4.03;;
16906;SDS011;8570;52.380;4.654;2024-02-26T10:02:58;9.33;;;4.90;;
16906;SDS011;8570;52.380;4.654;2024-02-26T10:08:04;6.87;;;4.10;;
16906;SDS011;8570;52.380;4.654;2024-02-26T10:13:08;6.00;;;4.07;;
16906;SDS011;8570;52.380;4.654;2024-02-26T10:18:12;5.53;;;4.20;;
16906;SDS011;8570;52.380;4.654;2024-02-26T10:23:13;6.63;;;3.60;;
16906;SDS011;8570;52.380;4.654;2024-02-26T10:28:17;8.73;;;3.60;;
16906;SDS011;8570;52.380;4.654;2024-02-26T10:33:19;7.03;;;3.37;;
16906;SDS011;8570;52.380;4.654;2024-02-26T10:38:21;7.10;;;3.83;;
16906;SDS011;8570;52.380;4.654;2024-02-26T10:43:26;7.63;;;3.40;;
16906;SDS011;8570;52.380;4.654;2024-02-26T10:48:28;3.47;;;3.03;;
16906;SDS011;8570;52.380;4.654;2024-02-26T10:53:30;8.27;;;3.40;;
16906;SDS011;8570;52.380;4.654;2024-02-26T10:58:35;6.20;;;4.77;;
16906;SDS011;8570;52.380;4.654;2024-02-26T11:03:38;5.87;;;3.97;;
16906;SDS011;8570;52.380;4.654;2024-02-26T11:08:41;5.97;;;4.57;;
16906;SDS011;8570;52.380;4.654;2024-02-26T11:13:46;6.43;;;3.13;;
16906;SDS011;8570;52.380;4.654;2024-02-26T11:18:51;6.13;;;3.23;;
16906;SDS011;8570;52.380;4.654;2024-02-26T11:23:56;3.90;;;3.00;;
16906;SDS011;8570;52.380;4.654;2024-02-26T11:28:59;3.97;;;3.03;;
16906;SDS011;8570;52.380;4.654;2024-02-26T11:34:03;3.13;;;2.73;;
16906;SDS011;8570;52.380;4.654;2024-02-26T11:39:07;6.63;;;3.90;;
16906;SDS011;8570;52.380;4.654;2024-02-26T11:44:11;6.33;;;2.90;;
16906;SDS011;8570;52.380;4.654;2024-02-26T12:00:11;6.03;;;2.80;;
16906;SDS011;8570;52.380;4.654;2024-02-26T12:05:15;4.07;;;2.77;;
16906;SDS011;8570;52.380;4.654;2024-02-26T12:10:23;7.53;;;2.80;;
16906;SDS011;8570;52.380;4.654;2024-02-26T12:15:31;5.03;;;2.57;;
16906;SDS011;8570;52.380;4.654;2024-02-26T12:20:34;7.70;;;3.10;;
16906;SDS011;8570;52.380;4.654;2024-02-26T12:25:36;3.37;;;2.43;;
16906;SDS011;8570;52.380;4.654;2024-02-26T12:30:39;8.47;;;3.17;;
16906;SDS011;8570;52.380;4.654;2024-02-26T12:35:41;6.43;;;2.50;;
16906;SDS011;8570;52.380;4.654;2024-02-26T12:40:44;9.40;;;3.57;;
16906;SDS011;8570;52.380;4.654;2024-02-26T12:45:50;6.17;;;2.50;;
16906;SDS011;8570;52.380;4.654;2024-02-26T12:50:57;4.30;;;2.67;;
16906;SDS011;8570;52.380;4.654;2024-02-26T12:55:59;7.20;;;3.20;;
16906;SDS011;8570;52.380;4.654;2024-02-26T13:01:03;8.47;;;3.03;;
16906;SDS011;8570;52.380;4.654;2024-02-26T13:06:05;4.87;;;3.47;;
16906;SDS011;8570;52.380;4.654;2024-02-26T13:11:08;4.57;;;2.87;;
16906;SDS011;8570;52.380;4.654;2024-02-26T13:16:13;5.57;;;2.80;;
16906;SDS011;8570;52.380;4.654;2024-02-26T13:21:17;6.30;;;4.17;;
16906;SDS011;8570;52.380;4.654;2024-02-26T13:26:22;8.47;;;3.60;;
16906;SDS011;8570;52.380;4.654;2024-02-26T13:31:27;7.53;;;4.53;;
16906;SDS011;8570;52.380;4.654;2024-02-26T13:36:29;6.43;;;5.13;;
16906;SDS011;8570;52.380;4.654;2024-02-26T13:41:31;6.40;;;3.80;;
16906;SDS011;8570;52.380;4.654;2024-02-26T13:46:34;10.17;;;5.97;;
16906;SDS011;8570;52.380;4.654;2024-02-26T13:51:36;6.40;;;3.63;;
16906;SDS011;8570;52.380;4.654;2024-02-26T13:56:38;8.67;;;4.53;;
16906;SDS011;8570;52.380;4.654;2024-02-26T14:01:41;10.93;;;4.40;;
16906;SDS011;8570;52.380;4.654;2024-02-26T14:06:43;7.20;;;4.03;;
16906;SDS011;8570;52.380;4.654;2024-02-26T14:11:45;9.83;;;4.23;;
16906;SDS011;8570;52.380;4.654;2024-02-26T14:16:48;12.67;;;5.57;;
16906;SDS011;8570;52.380;4.654;2024-02-26T14:21:50;5.70;;;3.97;;
16906;SDS011;8570;52.380;4.654;2024-02-26T14:26:54;10.00;;;4.00;;
16906;SDS011;8570;52.380;4.654;2024-02-26T14:31:58;9.37;;;5.70;;
16906;SDS011;8570;52.380;4.654;2024-02-26T14:36:59;11.90;;;4.90;;
16906;SDS011;8570;52.380;4.654;2024-02-26T14:42:01;11.73;;;5.10;;
16906;SDS011;8570;52.380;4.654;2024-02-26T14:47:05;21.17;;;5.77;;
16906;SDS011;8570;52.380;4.654;2024-02-26T14:52:07;10.50;;;5.43;;
16906;SDS011;8570;52.380;4.654;2024-02-26T14:57:09;11.73;;;5.83;;
16906;SDS011;8570;52.380;4.654;2024-02-26T15:02:12;14.97;;;5.70;;
16906;SDS011;8570;52.380;4.654;2024-02-26T15:07:14;10.97;;;4.90;;
16906;SDS011;8570;52.380;4.654;2024-02-26T15:12:16;8.07;;;3.53;;
16906;SDS011;8570;52.380;4.654;2024-02-26T15:17:21;11.57;;;3.97;;
16906;SDS011;8570;52.380;4.654;2024-02-26T15:22:24;5.17;;;3.27;;
16906;SDS011;8570;52.380;4.654;2024-02-26T15:27:29;9.33;;;4.30;;
16906;SDS011;8570;52.380;4.654;2024-02-26T15:32:32;8.37;;;3.37;;
16906;SDS011;8570;52.380;4.654;2024-02-26T15:37:35;11.57;;;4.10;;
16906;SDS011;8570;52.380;4.654;2024-02-26T15:42:39;9.50;;;3.67;;
16906;SDS011;8570;52.380;4.654;2024-02-26T15:47:43;10.37;;;3.70;;
16906;SDS011;8570;52.380;4.654;2024-02-26T15:52:45;4.80;;;3.70;;
16906;SDS011;8570;52.380;4.654;2024-02-26T15:57:46;9.80;;;4.97;;
16906;SDS011;8570;52.380;4.654;2024-02-26T16:02:50;7.03;;;3.30;;
16906;SDS011;8570;52.380;4.654;2024-02-26T16:07:53;9.73;;;4.47;;
16906;SDS011;8570;52.380;4.654;2024-02-26T16:12:58;14.27;;;4.60;;
16906;SDS011;8570;52.380;4.654;2024-02-26T16:18:03;10.03;;;3.57;;
16906;SDS011;8570;52.380;4.654;2024-02-26T16:23:05;11.23;;;4.30;;
16906;SDS011;8570;52.380;4.654;2024-02-26T16:28:08;8.53;;;3.73;;
16906;SDS011;8570;52.380;4.654;2024-02-26T16:33:11;8.00;;;4.80;;
16906;SDS011;8570;52.380;4.654;2024-02-26T16:38:13;6.63;;;3.30;;
16906;SDS011;8570;52.380;4.654;2024-02-26T16:43:15;8.53;;;3.97;;
16906;SDS011;8570;52.380;4.654;2024-02-26T16:48:18;5.83;;;2.57;;
16906;SDS011;8570;52.380;4.654;2024-02-26T16:53:20;9.20;;;3.53;;
16906;SDS011;8570;52.380;4.654;2024-02-26T16:58:22;7.60;;;3.77;;
16906;SDS011;8570;52.380;4.654;2024-02-26T17:03:26;6.13;;;3.40;;
16906;SDS011;8570;52.380;4.654;2024-02-26T17:08:34;8.50;;;3.70;;
16906;SDS011;8570;52.380;4.654;2024-02-26T17:13:37;9.00;;;5.27;;
16906;SDS011;8570;52.380;4.654;2024-02-26T17:18:40;10.97;;;3.93;;
16906;SDS011;8570;52.380;4.654;2024-02-26T17:23:42;6.70;;;2.63;;
16906;SDS011;8570;52.380;4.654;2024-02-26T17:28:44;4.97;;;2.37;;
16906;SDS011;8570;52.380;4.654;2024-02-26T17:33:48;7.93;;;4.73;;
16906;SDS011;8570;52.380;4.654;2024-02-26T17:38:50;6.60;;;3.30;;
16906;SDS011;8570;52.380;4.654;2024-02-26T17:43:52;7.67;;;3.77;;
16906;SDS011;8570;52.380;4.654;2024-02-26T17:48:56;8.07;;;3.37;;
16906;SDS011;8570;52.380;4.654;2024-02-26T17:53:58;5.90;;;2.67;;
16906;SDS011;8570;52.380;4.654;2024-02-26T17:59:00;9.23;;;2.73;;
16906;SDS011;8570;52.380;4.654;2024-02-26T18:04:03;7.70;;;2.90;;
16906;SDS011;8570;52.380;4.654;2024-02-26T18:09:06;7.53;;;4.33;;
16906;SDS011;8570;52.380;4.654;2024-02-26T18:14:09;7.00;;;3.40;;
16906;SDS011;8570;52.380;4.654;2024-02-26T18:19:12;8.23;;;3.57;;
16906;SDS011;8570;52.380;4.654;2024-02-26T18:24:14;8.13;;;3.23;;
16906;SDS011;8570;52.380;4.654;2024-02-26T18:29:16;5.57;;;2.10;;
16906;SDS011;8570;52.380;4.654;2024-02-26T18:34:19;5.10;;;2.27;;
16906;SDS011;8570;52.380;4.654;2024-02-26T18:39:21;5.77;;;2.30;;
16906;SDS011;8570;52.380;4.654;2024-02-26T18:44:24;9.53;;;2.17;;
16906;SDS011;8570;52.380;4.654;2024-02-26T18:49:28;4.03;;;2.03;;
16906;SDS011;8570;52.380;4.654;2024-02-26T18:54:32;4.97;;;1.80;;
16906;SDS011;8570;52.380;4.654;2024-02-26T18:59:34;8.87;;;2.30;;
16906;SDS011;8570;52.380;4.654;2024-02-26T19:04:38;4.83;;;1.80;;
16906;SDS011;8570;52.380;4.654;2024-02-26T19:09:40;8.20;;;3.27;;
16906;SDS011;8570;52.380;4.654;2024-02-26T19:14:42;4.90;;;2.07;;
16906;SDS011;8570;52.380;4.654;2024-02-26T19:19:46;6.17;;;3.10;;
16906;SDS011;8570;52.380;4.654;2024-02-26T19:24:48;9.83;;;3.50;;
16906;SDS011;8570;52.380;4.654;2024-02-26T19:29:51;6.93;;;4.43;;
16906;SDS011;8570;52.380;4.654;2024-02-26T19:34:54;5.33;;;2.07;;
16906;SDS011;8570;52.380;4.654;2024-02-26T19:39:57;5.30;;;3.57;;
16906;SDS011;8570;52.380;4.654;2024-02-26T19:44:59;9.60;;;3.87;;
16906;SDS011;8570;52.380;4.654;2024-02-26T19:50:06;6.83;;;3.43;;
16906;SDS011;8570;52.380;4.654;2024-02-26T19:55:12;6.50;;;2.83;;
16906;SDS011;8570;52.380;4.654;2024-02-26T20:00:14;9.40;;;3.80;;
16906;SDS011;8570;52.380;4.654;2024-02-26T20:05:17;8.90;;;4.50;;
16906;SDS011;8570;52.380;4.654;2024-02-26T20:10:20;7.60;;;4.00;;
16906;SDS011;8570;52.380;4.654;2024-02-26T20:15:23;7.73;;;3.70;;
16906;SDS011;8570;52.380;4.654;2024-02-26T20:20:26;11.17;;;3.27;;
16906;SDS011;8570;52.380;4.654;2024-02-26T20:25:29;6.07;;;2.27;;
16906;SDS011;8570;52.380;4.654;2024-02-26T20:30:31;4.60;;;1.90;;
16906;SDS011;8570;52.380;4.654;2024-02-26T20:35:35;7.27;;;2.17;;
16906;SDS011;8570;52.380;4.654;2024-02-26T20:40:37;4.90;;;2.70;;
16906;SDS011;8570;52.380;4.654;2024-02-26T20:45:38;3.80;;;1.47;;
16906;SDS011;8570;52.380;4.654;2024-02-26T20:50:42;4.13;;;2.30;;
16906;SDS011;8570;52.380;4.654;2024-02-26T20:55:43;8.73;;;6.17;;
16906;SDS011;8570;52.380;4.654;2024-02-26T21:00:46;7.03;;;2.30;;
16906;SDS011;8570;52.380;4.654;2024-02-26T21:05:50;9.63;;;3.50;;
16906;SDS011;8570;52.380;4.654;2024-02-26T21:10:52;8.50;;;3.70;;
16906;SDS011;8570;52.380;4.654;2024-02-26T21:15:54;5.60;;;4.03;;
16906;SDS011;8570;52.380;4.654;2024-02-26T21:20:57;7.10;;;3.20;;
16906;SDS011;8570;52.380;4.654;2024-02-26T21:25:59;6.20;;;2.83;;
16906;SDS011;8570;52.380;4.654;2024-02-26T21:31:01;6.23;;;3.00;;
16906;SDS011;8570;52.380;4.654;2024-02-26T21:36:05;11.50;;;6.30;;
16906;SDS011;8570;52.380;4.654;2024-02-26T21:41:07;10.27;;;5.50;;
16906;SDS011;8570;52.380;4.654;2024-02-26T21:46:08;7.87;;;3.63;;
16906;SDS011;8570;52.380;4.654;2024-02-26T21:51:12;9.57;;;2.87;;
16906;SDS011;8570;52.380;4.654;2024-02-26T21:56:14;9.73;;;2.40;;
16906;SDS011;8570;52.380;4.654;2024-02-26T22:01:15;5.70;;;2.70;;
16906;SDS011;8570;52.380;4.654;2024-02-26T22:06:19;7.40;;;2.80;;
16906;SDS011;8570;52.380;4.654;2024-02-26T22:11:21;14.60;;;3.73;;
16906;SDS011;8570;52.380;4.654;2024-02-26T22:16:24;8.00;;;3.20;;
16906;SDS011;8570;52.380;4.654;2024-02-26T22:21:27;6.87;;;2.93;;
16906;SDS011;8570;52.380;4.654;2024-02-26T22:26:29;8.87;;;2.93;;
16906;SDS011;8570;52.380;4.654;2024-02-26T22:31:33;8.23;;;3.10;;
16906;SDS011;8570;52.380;4.654;2024-02-26T22:36:37;7.03;;;3.07;;
16906;SDS011;8570;52.380;4.654;2024-02-26T22:41:39;8.67;;;3.00;;
16906;SDS011;8570;52.380;4.654;2024-02-26T22:46:42;5.67;;;2.87;;
16906;SDS011;8570;52.380;4.654;2024-02-26T22:51:45;7.43;;;3.53;;
16906;SDS011;8570;52.380;4.654;2024-02-26T22:56:48;6.97;;;3.00;;
16906;SDS011;8570;52.380;4.654;2024-02-26T23:01:50;6.00;;;2.60;;
16906;SDS011;8570;52.380;4.654;2024-02-26T23:06:54;5.03;;;2.30;;
16906;SDS011;8570;52.380;4.654;2024-02-26T23:11:56;5.97;;;2.80;;
16906;SDS011;8570;52.380;4.654;2024-02-26T23:16:58;4.23;;;2.87;;
16906;SDS011;8570;52.380;4.654;2024-02-26T23:22:01;5.67;;;3.40;;
16906;SDS011;8570;52.380;4.654;2024-02-26T23:27:03;5.97;;;3.40;;
16906;SDS011;8570;52.380;4.654;2024-02-26T23:32:06;5.83;;;2.83;;
16906;SDS011;8570;52.380;4.654;2024-02-26T23:37:09;6.33;;;2.70;;
16906;SDS011;8570;52.380;4.654;2024-02-26T23:42:11;3.43;;;2.63;;
16906;SDS011;8570;52.380;4.654;2024-02-26T23:47:13;3.27;;;2.40;;
16906;SDS011;8570;52.380;4.654;2024-02-26T23:52:17;6.67;;;2.27;;
16906;SDS011;8570;52.380;4.654;2024-02-26T23:57:18;6.67;;;3.80;;
